sensor_id;sensor_type;location;lat;lon;timestamp;P1;durP1;ratioP1;P2;durP2;ratioP2
74044;SDS011;62389;51.412;5.436;2023-03-14T00:02:21;5.28;;;1.83;;
74044;SDS011;62389;51.412;5.436;2023-03-14T00:04:47;8.80;;;2.17;;
74044;SDS011;62389;51.412;5.436;2023-03-14T00:07:13;6.28;;;1.80;;
74044;SDS011;62389;51.412;5.436;2023-03-14T00:09:39;5.00;;;1.23;;
74044;SDS011;62389;51.412;5.436;2023-03-14T00:12:04;4.30;;;1.38;;
74044;SDS011;62389;51.412;5.436;2023-03-14T00:14:32;4.45;;;0.85;;
74044;SDS011;62389;51.412;5.436;2023-03-14T00:16:58;4.32;;;1.58;;
74044;SDS011;62389;51.412;5.436;2023-03-14T00:19:23;8.80;;;1.20;;
74044;SDS011;62389;51.412;5.436;2023-03-14T00:21:48;6.45;;;1.13;;
74044;SDS011;62389;51.412;5.436;2023-03-14T00:24:14;6.70;;;1.02;;
74044;SDS011;62389;51.412;5.436;2023-03-14T00:26:39;8.27;;;1.38;;
74044;SDS011;62389;51.412;5.436;2023-03-14T00:29:04;5.30;;;1.33;;
74044;SDS011;62389;51.412;5.436;2023-03-14T00:31:30;6.18;;;1.40;;
74044;SDS011;62389;51.412;5.436;2023-03-14T00:33:55;4.78;;;1.25;;
74044;SDS011;62389;51.412;5.436;2023-03-14T00:36:21;11.18;;;1.75;;
74044;SDS011;62389;51.412;5.436;2023-03-14T00:38:48;2.88;;;0.80;;
74044;SDS011;62389;51.412;5.436;2023-03-14T00:41:17;5.55;;;0.70;;
74044;SDS011;62389;51.412;5.436;2023-03-14T00:43:44;2.20;;;0.70;;
74044;SDS011;62389;51.412;5.436;2023-03-14T00:46:10;2.58;;;1.00;;
74044;SDS011;62389;51.412;5.436;2023-03-14T00:48:36;3.38;;;1.13;;
74044;SDS011;62389;51.412;5.436;2023-03-14T00:51:02;7.32;;;0.93;;
74044;SDS011;62389;51.412;5.436;2023-03-14T00:53:29;2.72;;;1.20;;
74044;SDS011;62389;51.412;5.436;2023-03-14T00:55:55;5.47;;;0.85;;
74044;SDS011;62389;51.412;5.436;2023-03-14T00:58:20;3.42;;;1.10;;
74044;SDS011;62389;51.412;5.436;2023-03-14T01:00:45;3.58;;;0.90;;
74044;SDS011;62389;51.412;5.436;2023-03-14T01:03:11;6.85;;;1.35;;
74044;SDS011;62389;51.412;5.436;2023-03-14T01:05:37;5.85;;;1.42;;
74044;SDS011;62389;51.412;5.436;2023-03-14T01:08:03;5.45;;;0.77;;
74044;SDS011;62389;51.412;5.436;2023-03-14T01:10:29;7.05;;;1.02;;
74044;SDS011;62389;51.412;5.436;2023-03-14T01:12:55;5.03;;;1.10;;
74044;SDS011;62389;51.412;5.436;2023-03-14T01:15:20;2.42;;;1.40;;
74044;SDS011;62389;51.412;5.436;2023-03-14T01:17:45;2.53;;;0.70;;
74044;SDS011;62389;51.412;5.436;2023-03-14T01:20:12;3.20;;;0.77;;
74044;SDS011;62389;51.412;5.436;2023-03-14T01:22:39;4.20;;;1.42;;
74044;SDS011;62389;51.412;5.436;2023-03-14T01:25:15;4.93;;;1.13;;
74044;SDS011;62389;51.412;5.436;2023-03-14T01:27:42;2.75;;;0.80;;
74044;SDS011;62389;51.412;5.436;2023-03-14T01:30:08;5.93;;;1.05;;
74044;SDS011;62389;51.412;5.436;2023-03-14T01:32:34;4.75;;;0.95;;
74044;SDS011;62389;51.412;5.436;2023-03-14T01:34:59;5.35;;;0.90;;
74044;SDS011;62389;51.412;5.436;2023-03-14T01:37:25;3.00;;;0.85;;
74044;SDS011;62389;51.412;5.436;2023-03-14T01:39:50;3.72;;;0.85;;
74044;SDS011;62389;51.412;5.436;2023-03-14T01:42:16;2.67;;;0.65;;
74044;SDS011;62389;51.412;5.436;2023-03-14T01:44:48;4.45;;;0.93;;
74044;SDS011;62389;51.412;5.436;2023-03-14T01:47:13;6.47;;;1.10;;
74044;SDS011;62389;51.412;5.436;2023-03-14T01:49:39;4.47;;;1.58;;
74044;SDS011;62389;51.412;5.436;2023-03-14T01:52:15;4.03;;;1.02;;
74044;SDS011;62389;51.412;5.436;2023-03-14T01:54:44;4.63;;;1.10;;
74044;SDS011;62389;51.412;5.436;2023-03-14T01:57:55;3.15;;;1.20;;
74044;SDS011;62389;51.412;5.436;2023-03-14T02:00:10;3.47;;;0.77;;
74044;SDS011;62389;51.412;5.436;2023-03-14T02:02:39;5.28;;;1.33;;
74044;SDS011;62389;51.412;5.436;2023-03-14T02:05:08;4.57;;;0.98;;
74044;SDS011;62389;51.412;5.436;2023-03-14T02:10:11;6.28;;;0.93;;
74044;SDS011;62389;51.412;5.436;2023-03-14T02:12:36;4.72;;;1.13;;
74044;SDS011;62389;51.412;5.436;2023-03-14T02:15:02;4.80;;;1.10;;
74044;SDS011;62389;51.412;5.436;2023-03-14T02:17:28;5.65;;;1.00;;
74044;SDS011;62389;51.412;5.436;2023-03-14T02:23:03;5.05;;;1.10;;
74044;SDS011;62389;51.412;5.436;2023-03-14T02:25:32;8.65;;;1.38;;
74044;SDS011;62389;51.412;5.436;2023-03-14T02:28:08;7.20;;;1.05;;
74044;SDS011;62389;51.412;5.436;2023-03-14T02:30:34;8.85;;;1.30;;
74044;SDS011;62389;51.412;5.436;2023-03-14T02:33:07;3.72;;;1.15;;
74044;SDS011;62389;51.412;5.436;2023-03-14T02:35:36;5.57;;;1.25;;
74044;SDS011;62389;51.412;5.436;2023-03-14T02:40:36;3.85;;;1.45;;
74044;SDS011;62389;51.412;5.436;2023-03-14T02:43:02;6.07;;;1.67;;
74044;SDS011;62389;51.412;5.436;2023-03-14T02:47:57;5.18;;;1.10;;
74044;SDS011;62389;51.412;5.436;2023-03-14T02:50:30;3.22;;;0.90;;
74044;SDS011;62389;51.412;5.436;2023-03-14T02:52:58;5.60;;;1.10;;
74044;SDS011;62389;51.412;5.436;2023-03-14T02:55:23;3.67;;;0.85;;
74044;SDS011;62389;51.412;5.436;2023-03-14T02:57:51;4.90;;;1.27;;
74044;SDS011;62389;51.412;5.436;2023-03-14T03:00:16;4.15;;;1.17;;
74044;SDS011;62389;51.412;5.436;2023-03-14T03:02:42;3.85;;;0.95;;
74044;SDS011;62389;51.412;5.436;2023-03-14T03:05:07;3.80;;;1.05;;
74044;SDS011;62389;51.412;5.436;2023-03-14T03:07:33;6.72;;;1.52;;
74044;SDS011;62389;51.412;5.436;2023-03-14T03:09:58;3.58;;;0.90;;
74044;SDS011;62389;51.412;5.436;2023-03-14T03:12:24;6.22;;;1.13;;
74044;SDS011;62389;51.412;5.436;2023-03-14T03:14:49;6.32;;;1.42;;
74044;SDS011;62389;51.412;5.436;2023-03-14T03:17:14;5.15;;;1.52;;
74044;SDS011;62389;51.412;5.436;2023-03-14T03:19:40;4.65;;;1.23;;
74044;SDS011;62389;51.412;5.436;2023-03-14T03:22:06;5.35;;;1.20;;
74044;SDS011;62389;51.412;5.436;2023-03-14T03:24:31;6.88;;;1.33;;
74044;SDS011;62389;51.412;5.436;2023-03-14T03:26:57;10.90;;;1.30;;
74044;SDS011;62389;51.412;5.436;2023-03-14T03:29:22;7.28;;;1.40;;
74044;SDS011;62389;51.412;5.436;2023-03-14T03:31:48;4.32;;;1.10;;
74044;SDS011;62389;51.412;5.436;2023-03-14T03:34:13;3.72;;;1.10;;
74044;SDS011;62389;51.412;5.436;2023-03-14T03:36:39;7.32;;;1.33;;
74044;SDS011;62389;51.412;5.436;2023-03-14T03:39:04;4.63;;;1.50;;
74044;SDS011;62389;51.412;5.436;2023-03-14T03:41:30;4.43;;;1.02;;
74044;SDS011;62389;51.412;5.436;2023-03-14T03:43:56;4.72;;;1.02;;
74044;SDS011;62389;51.412;5.436;2023-03-14T03:46:21;8.70;;;1.38;;
74044;SDS011;62389;51.412;5.436;2023-03-14T03:48:47;5.70;;;1.25;;
74044;SDS011;62389;51.412;5.436;2023-03-14T03:51:13;8.48;;;1.10;;
74044;SDS011;62389;51.412;5.436;2023-03-14T03:53:39;3.92;;;1.00;;
74044;SDS011;62389;51.412;5.436;2023-03-14T03:56:05;3.72;;;1.08;;
74044;SDS011;62389;51.412;5.436;2023-03-14T03:58:31;5.05;;;1.00;;
74044;SDS011;62389;51.412;5.436;2023-03-14T04:00:56;5.75;;;0.98;;
74044;SDS011;62389;51.412;5.436;2023-03-14T04:03:22;5.32;;;0.95;;
74044;SDS011;62389;51.412;5.436;2023-03-14T04:05:57;4.10;;;0.95;;
74044;SDS011;62389;51.412;5.436;2023-03-14T04:08:23;3.05;;;1.00;;
74044;SDS011;62389;51.412;5.436;2023-03-14T04:10:48;2.45;;;0.82;;
74044;SDS011;62389;51.412;5.436;2023-03-14T04:13:14;2.72;;;0.82;;
74044;SDS011;62389;51.412;5.436;2023-03-14T04:15:39;2.65;;;1.20;;
74044;SDS011;62389;51.412;5.436;2023-03-14T04:18:04;3.00;;;0.80;;
74044;SDS011;62389;51.412;5.436;2023-03-14T04:20:30;2.50;;;0.57;;
74044;SDS011;62389;51.412;5.436;2023-03-14T04:22:55;2.13;;;0.50;;
74044;SDS011;62389;51.412;5.436;2023-03-14T04:25:20;4.93;;;0.95;;
74044;SDS011;62389;51.412;5.436;2023-03-14T04:27:46;4.40;;;0.90;;
74044;SDS011;62389;51.412;5.436;2023-03-14T04:30:12;3.85;;;0.70;;
74044;SDS011;62389;51.412;5.436;2023-03-14T04:32:38;2.03;;;0.90;;
74044;SDS011;62389;51.412;5.436;2023-03-14T04:37:30;3.50;;;0.90;;
74044;SDS011;62389;51.412;5.436;2023-03-14T04:39:55;2.58;;;1.15;;
74044;SDS011;62389;51.412;5.436;2023-03-14T04:42:20;3.47;;;1.27;;
74044;SDS011;62389;51.412;5.436;2023-03-14T04:44:46;3.83;;;1.20;;
74044;SDS011;62389;51.412;5.436;2023-03-14T04:47:14;4.13;;;1.65;;
74044;SDS011;62389;51.412;5.436;2023-03-14T04:49:39;5.43;;;1.40;;
74044;SDS011;62389;51.412;5.436;2023-03-14T04:52:05;5.30;;;1.90;;
74044;SDS011;62389;51.412;5.436;2023-03-14T04:54:30;2.85;;;1.58;;
74044;SDS011;62389;51.412;5.436;2023-03-14T04:56:55;5.57;;;2.53;;
74044;SDS011;62389;51.412;5.436;2023-03-14T04:59:21;6.28;;;2.80;;
74044;SDS011;62389;51.412;5.436;2023-03-14T05:01:46;4.63;;;2.47;;
74044;SDS011;62389;51.412;5.436;2023-03-14T05:06:38;4.60;;;2.63;;
74044;SDS011;62389;51.412;5.436;2023-03-14T05:09:04;5.97;;;2.80;;
74044;SDS011;62389;51.412;5.436;2023-03-14T05:11:30;4.78;;;2.35;;
74044;SDS011;62389;51.412;5.436;2023-03-14T05:13:55;6.32;;;2.90;;
74044;SDS011;62389;51.412;5.436;2023-03-14T05:16:20;5.68;;;2.53;;
74044;SDS011;62389;51.412;5.436;2023-03-14T05:18:46;3.83;;;1.80;;
74044;SDS011;62389;51.412;5.436;2023-03-14T05:21:11;7.50;;;2.30;;
74044;SDS011;62389;51.412;5.436;2023-03-14T05:23:37;5.07;;;2.30;;
74044;SDS011;62389;51.412;5.436;2023-03-14T05:26:02;6.28;;;2.03;;
74044;SDS011;62389;51.412;5.436;2023-03-14T05:28:27;7.50;;;2.17;;
74044;SDS011;62389;51.412;5.436;2023-03-14T05:30:53;6.45;;;2.28;;
74044;SDS011;62389;51.412;5.436;2023-03-14T05:33:18;5.75;;;2.20;;
74044;SDS011;62389;51.412;5.436;2023-03-14T05:35:44;4.88;;;1.83;;
74044;SDS011;62389;51.412;5.436;2023-03-14T05:38:09;7.50;;;2.25;;
74044;SDS011;62389;51.412;5.436;2023-03-14T05:40:34;5.07;;;2.17;;
74044;SDS011;62389;51.412;5.436;2023-03-14T05:43:00;6.68;;;1.67;;
74044;SDS011;62389;51.412;5.436;2023-03-14T05:45:25;5.03;;;2.15;;
74044;SDS011;62389;51.412;5.436;2023-03-14T05:47:51;6.18;;;2.20;;
74044;SDS011;62389;51.412;5.436;2023-03-14T05:50:17;6.03;;;1.85;;
74044;SDS011;62389;51.412;5.436;2023-03-14T05:52:42;5.20;;;2.15;;
74044;SDS011;62389;51.412;5.436;2023-03-14T05:55:08;4.97;;;1.80;;
74044;SDS011;62389;51.412;5.436;2023-03-14T05:57:33;5.18;;;2.10;;
74044;SDS011;62389;51.412;5.436;2023-03-14T05:59:59;4.28;;;1.90;;
74044;SDS011;62389;51.412;5.436;2023-03-14T06:02:24;5.55;;;1.85;;
74044;SDS011;62389;51.412;5.436;2023-03-14T06:04:49;5.38;;;2.03;;
74044;SDS011;62389;51.412;5.436;2023-03-14T06:07:15;6.60;;;2.17;;
74044;SDS011;62389;51.412;5.436;2023-03-14T06:09:40;5.90;;;2.22;;
74044;SDS011;62389;51.412;5.436;2023-03-14T06:12:05;4.35;;;1.85;;
74044;SDS011;62389;51.412;5.436;2023-03-14T06:14:31;5.47;;;1.80;;
74044;SDS011;62389;51.412;5.436;2023-03-14T06:16:56;6.30;;;2.45;;
74044;SDS011;62389;51.412;5.436;2023-03-14T06:19:23;5.20;;;2.17;;
74044;SDS011;62389;51.412;5.436;2023-03-14T06:21:49;5.45;;;1.60;;
74044;SDS011;62389;51.412;5.436;2023-03-14T06:24:15;3.42;;;1.73;;
74044;SDS011;62389;51.412;5.436;2023-03-14T06:26:40;3.45;;;1.42;;
74044;SDS011;62389;51.412;5.436;2023-03-14T06:29:05;4.43;;;1.77;;
74044;SDS011;62389;51.412;5.436;2023-03-14T06:31:31;4.30;;;1.83;;
74044;SDS011;62389;51.412;5.436;2023-03-14T06:33:57;6.03;;;2.25;;
74044;SDS011;62389;51.412;5.436;2023-03-14T06:36:22;5.35;;;2.10;;
74044;SDS011;62389;51.412;5.436;2023-03-14T06:38:48;3.78;;;1.70;;
74044;SDS011;62389;51.412;5.436;2023-03-14T06:41:15;5.05;;;1.63;;
74044;SDS011;62389;51.412;5.436;2023-03-14T06:43:40;3.47;;;1.70;;
74044;SDS011;62389;51.412;5.436;2023-03-14T06:46:05;8.18;;;2.33;;
74044;SDS011;62389;51.412;5.436;2023-03-14T06:48:31;3.63;;;2.13;;
74044;SDS011;62389;51.412;5.436;2023-03-14T06:50:56;3.10;;;1.92;;
74044;SDS011;62389;51.412;5.436;2023-03-14T06:53:21;4.53;;;1.83;;
74044;SDS011;62389;51.412;5.436;2023-03-14T06:55:47;4.70;;;1.73;;
74044;SDS011;62389;51.412;5.436;2023-03-14T06:58:12;5.78;;;1.90;;
74044;SDS011;62389;51.412;5.436;2023-03-14T07:00:38;3.55;;;1.90;;
74044;SDS011;62389;51.412;5.436;2023-03-14T07:03:03;4.93;;;2.08;;
74044;SDS011;62389;51.412;5.436;2023-03-14T07:05:28;4.72;;;1.92;;
74044;SDS011;62389;51.412;5.436;2023-03-14T07:07:54;4.75;;;2.03;;
74044;SDS011;62389;51.412;5.436;2023-03-14T07:10:19;3.70;;;1.70;;
74044;SDS011;62389;51.412;5.436;2023-03-14T07:12:45;4.13;;;1.73;;
74044;SDS011;62389;51.412;5.436;2023-03-14T07:15:10;4.68;;;2.08;;
74044;SDS011;62389;51.412;5.436;2023-03-14T07:17:36;5.55;;;1.80;;
74044;SDS011;62389;51.412;5.436;2023-03-14T07:20:01;4.85;;;1.92;;
74044;SDS011;62389;51.412;5.436;2023-03-14T07:22:29;5.90;;;1.95;;
74044;SDS011;62389;51.412;5.436;2023-03-14T07:24:55;4.47;;;1.45;;
74044;SDS011;62389;51.412;5.436;2023-03-14T07:27:20;4.80;;;2.10;;
74044;SDS011;62389;51.412;5.436;2023-03-14T07:29:45;3.00;;;1.90;;
74044;SDS011;62389;51.412;5.436;2023-03-14T07:32:11;4.68;;;2.30;;
74044;SDS011;62389;51.412;5.436;2023-03-14T07:34:39;7.18;;;2.03;;
74044;SDS011;62389;51.412;5.436;2023-03-14T07:37:07;3.90;;;1.88;;
74044;SDS011;62389;51.412;5.436;2023-03-14T07:39:33;4.32;;;1.80;;
74044;SDS011;62389;51.412;5.436;2023-03-14T07:41:59;2.50;;;1.40;;
74044;SDS011;62389;51.412;5.436;2023-03-14T07:44:25;1.65;;;0.93;;
74044;SDS011;62389;51.412;5.436;2023-03-14T07:46:51;1.45;;;0.80;;
74044;SDS011;62389;51.412;5.436;2023-03-14T07:49:16;1.50;;;0.82;;
74044;SDS011;62389;51.412;5.436;2023-03-14T07:51:41;2.42;;;1.00;;
74044;SDS011;62389;51.412;5.436;2023-03-14T07:54:09;2.10;;;0.80;;
74044;SDS011;62389;51.412;5.436;2023-03-14T07:56:35;2.88;;;1.10;;
74044;SDS011;62389;51.412;5.436;2023-03-14T07:59:00;1.65;;;0.90;;
74044;SDS011;62389;51.412;5.436;2023-03-14T08:01:26;1.48;;;0.98;;
74044;SDS011;62389;51.412;5.436;2023-03-14T08:03:51;1.65;;;1.02;;
74044;SDS011;62389;51.412;5.436;2023-03-14T08:06:17;2.50;;;1.20;;
74044;SDS011;62389;51.412;5.436;2023-03-14T08:08:42;2.20;;;1.30;;
74044;SDS011;62389;51.412;5.436;2023-03-14T08:11:07;3.92;;;1.70;;
74044;SDS011;62389;51.412;5.436;2023-03-14T08:13:33;2.75;;;1.95;;
74044;SDS011;62389;51.412;5.436;2023-03-14T08:15:59;3.67;;;1.88;;
74044;SDS011;62389;51.412;5.436;2023-03-14T08:18:25;4.22;;;2.58;;
74044;SDS011;62389;51.412;5.436;2023-03-14T08:20:50;4.30;;;2.15;;
74044;SDS011;62389;51.412;5.436;2023-03-14T08:23:15;3.92;;;2.67;;
74044;SDS011;62389;51.412;5.436;2023-03-14T08:25:41;2.90;;;1.90;;
74044;SDS011;62389;51.412;5.436;2023-03-14T08:28:06;2.83;;;1.55;;
74044;SDS011;62389;51.412;5.436;2023-03-14T08:30:31;2.50;;;1.30;;
74044;SDS011;62389;51.412;5.436;2023-03-14T08:32:57;2.38;;;1.50;;
74044;SDS011;62389;51.412;5.436;2023-03-14T08:35:23;2.20;;;1.40;;
74044;SDS011;62389;51.412;5.436;2023-03-14T08:37:50;2.55;;;1.40;;
74044;SDS011;62389;51.412;5.436;2023-03-14T08:40:16;3.55;;;1.92;;
74044;SDS011;62389;51.412;5.436;2023-03-14T08:42:42;2.95;;;1.45;;
74044;SDS011;62389;51.412;5.436;2023-03-14T08:45:09;2.90;;;1.75;;
74044;SDS011;62389;51.412;5.436;2023-03-14T08:47:37;2.80;;;1.73;;
74044;SDS011;62389;51.412;5.436;2023-03-14T08:50:03;5.40;;;2.40;;
74044;SDS011;62389;51.412;5.436;2023-03-14T08:54:55;7.57;;;2.47;;
74044;SDS011;62389;51.412;5.436;2023-03-14T08:57:21;3.60;;;1.67;;
74044;SDS011;62389;51.412;5.436;2023-03-14T08:59:47;4.68;;;2.28;;
74044;SDS011;62389;51.412;5.436;2023-03-14T09:02:12;3.13;;;1.25;;
74044;SDS011;62389;51.412;5.436;2023-03-14T09:04:38;3.38;;;1.40;;
74044;SDS011;62389;51.412;5.436;2023-03-14T09:07:03;6.00;;;1.38;;
74044;SDS011;62389;51.412;5.436;2023-03-14T09:09:29;2.50;;;1.13;;
74044;SDS011;62389;51.412;5.436;2023-03-14T09:11:57;2.75;;;1.20;;
74044;SDS011;62389;51.412;5.436;2023-03-14T09:14:23;3.28;;;0.90;;
74044;SDS011;62389;51.412;5.436;2023-03-14T09:16:49;6.40;;;1.25;;
74044;SDS011;62389;51.412;5.436;2023-03-14T09:19:16;4.47;;;1.00;;
74044;SDS011;62389;51.412;5.436;2023-03-14T09:21:41;3.60;;;1.20;;
74044;SDS011;62389;51.412;5.436;2023-03-14T09:24:07;3.90;;;1.70;;
74044;SDS011;62389;51.412;5.436;2023-03-14T09:26:32;4.68;;;1.17;;
74044;SDS011;62389;51.412;5.436;2023-03-14T09:28:57;2.35;;;1.30;;
74044;SDS011;62389;51.412;5.436;2023-03-14T09:31:23;2.85;;;1.10;;
74044;SDS011;62389;51.412;5.436;2023-03-14T09:33:48;3.63;;;1.63;;
74044;SDS011;62389;51.412;5.436;2023-03-14T09:36:14;3.65;;;1.50;;
74044;SDS011;62389;51.412;5.436;2023-03-14T09:38:39;4.18;;;1.60;;
74044;SDS011;62389;51.412;5.436;2023-03-14T09:41:16;3.38;;;1.42;;
74044;SDS011;62389;51.412;5.436;2023-03-14T09:44:03;3.42;;;2.17;;
74044;SDS011;62389;51.412;5.436;2023-03-14T09:46:31;3.60;;;1.77;;
74044;SDS011;62389;51.412;5.436;2023-03-14T09:49:00;2.15;;;1.40;;
74044;SDS011;62389;51.412;5.436;2023-03-14T09:51:26;1.98;;;1.40;;
74044;SDS011;62389;51.412;5.436;2023-03-14T09:53:52;2.33;;;0.93;;
74044;SDS011;62389;51.412;5.436;2023-03-14T09:56:22;1.85;;;0.60;;
74044;SDS011;62389;51.412;5.436;2023-03-14T10:01:22;1.83;;;0.73;;
74044;SDS011;62389;51.412;5.436;2023-03-14T10:03:50;1.02;;;0.50;;
74044;SDS011;62389;51.412;5.436;2023-03-14T10:06:18;4.70;;;0.70;;
74044;SDS011;62389;51.412;5.436;2023-03-14T10:08:44;1.63;;;0.40;;
74044;SDS011;62389;51.412;5.436;2023-03-14T10:11:14;1.27;;;0.50;;
74044;SDS011;62389;51.412;5.436;2023-03-14T10:13:49;0.82;;;0.40;;
74044;SDS011;62389;51.412;5.436;2023-03-14T10:19:04;0.52;;;0.40;;
74044;SDS011;62389;51.412;5.436;2023-03-14T10:21:35;1.17;;;0.50;;
74044;SDS011;62389;51.412;5.436;2023-03-14T10:26:55;1.83;;;0.40;;
74044;SDS011;62389;51.412;5.436;2023-03-14T10:29:23;1.38;;;0.60;;
74044;SDS011;62389;51.412;5.436;2023-03-14T10:31:53;2.25;;;0.70;;
74044;SDS011;62389;51.412;5.436;2023-03-14T10:34:24;1.15;;;0.60;;
74044;SDS011;62389;51.412;5.436;2023-03-14T10:36:52;3.72;;;0.98;;
74044;SDS011;62389;51.412;5.436;2023-03-14T10:39:38;3.00;;;1.08;;
74044;SDS011;62389;51.412;5.436;2023-03-14T10:42:19;2.30;;;0.80;;
74044;SDS011;62389;51.412;5.436;2023-03-14T10:44:51;3.47;;;0.73;;
74044;SDS011;62389;51.412;5.436;2023-03-14T10:47:24;6.00;;;1.20;;
74044;SDS011;62389;51.412;5.436;2023-03-14T10:49:53;2.58;;;0.90;;
74044;SDS011;62389;51.412;5.436;2023-03-14T10:52:23;4.75;;;1.05;;
74044;SDS011;62389;51.412;5.436;2023-03-14T10:54:55;2.97;;;0.85;;
74044;SDS011;62389;51.412;5.436;2023-03-14T10:57:24;5.63;;;1.00;;
74044;SDS011;62389;51.412;5.436;2023-03-14T10:59:50;3.85;;;0.90;;
74044;SDS011;62389;51.412;5.436;2023-03-14T11:02:32;3.35;;;1.10;;
74044;SDS011;62389;51.412;5.436;2023-03-14T11:05:24;5.35;;;1.10;;
74044;SDS011;62389;51.412;5.436;2023-03-14T11:08:42;6.57;;;1.20;;
74044;SDS011;62389;51.412;5.436;2023-03-14T11:11:11;7.43;;;1.30;;
74044;SDS011;62389;51.412;5.436;2023-03-14T11:16:22;4.32;;;1.15;;
74044;SDS011;62389;51.412;5.436;2023-03-14T11:22:18;6.70;;;0.75;;
74044;SDS011;62389;51.412;5.436;2023-03-14T11:25:06;3.13;;;1.00;;
74044;SDS011;62389;51.412;5.436;2023-03-14T11:27:42;10.05;;;1.45;;
74044;SDS011;62389;51.412;5.436;2023-03-14T11:30:39;5.13;;;1.27;;
74044;SDS011;62389;51.412;5.436;2023-03-14T11:33:37;7.20;;;1.10;;
74044;SDS011;62389;51.412;5.436;2023-03-14T11:36:08;6.90;;;1.40;;
74044;SDS011;62389;51.412;5.436;2023-03-14T11:38:51;6.80;;;0.88;;
74044;SDS011;62389;51.412;5.436;2023-03-14T11:41:23;6.45;;;1.10;;
74044;SDS011;62389;51.412;5.436;2023-03-14T11:44:08;9.00;;;1.38;;
74044;SDS011;62389;51.412;5.436;2023-03-14T11:46:41;4.57;;;1.20;;
74044;SDS011;62389;51.412;5.436;2023-03-14T11:51:43;9.98;;;1.73;;
74044;SDS011;62389;51.412;5.436;2023-03-14T11:57:03;5.18;;;0.88;;
74044;SDS011;62389;51.412;5.436;2023-03-14T12:02:37;4.82;;;1.10;;
74044;SDS011;62389;51.412;5.436;2023-03-14T12:08:02;10.77;;;2.10;;
74044;SDS011;62389;51.412;5.436;2023-03-14T12:13:03;5.72;;;1.38;;
74044;SDS011;62389;51.412;5.436;2023-03-14T12:15:29;9.57;;;1.23;;
74044;SDS011;62389;51.412;5.436;2023-03-14T12:17:55;4.45;;;1.42;;
74044;SDS011;62389;51.412;5.436;2023-03-14T12:20:22;7.35;;;1.40;;
74044;SDS011;62389;51.412;5.436;2023-03-14T12:22:50;11.05;;;1.70;;
74044;SDS011;62389;51.412;5.436;2023-03-14T12:30:29;12.50;;;2.10;;
74044;SDS011;62389;51.412;5.436;2023-03-14T12:35:43;16.17;;;2.03;;
74044;SDS011;62389;51.412;5.436;2023-03-14T12:38:09;13.30;;;1.65;;
74044;SDS011;62389;51.412;5.436;2023-03-14T12:40:37;9.75;;;1.75;;
74044;SDS011;62389;51.412;5.436;2023-03-14T12:46:08;16.27;;;2.53;;
74044;SDS011;62389;51.412;5.436;2023-03-14T12:48:34;7.53;;;1.30;;
74044;SDS011;62389;51.412;5.436;2023-03-14T12:51:03;10.70;;;2.17;;
74044;SDS011;62389;51.412;5.436;2023-03-14T12:59:30;11.93;;;1.80;;
74044;SDS011;62389;51.412;5.436;2023-03-14T13:02:37;8.13;;;1.85;;
74044;SDS011;62389;51.412;5.436;2023-03-14T13:05:13;12.60;;;2.08;;
74044;SDS011;62389;51.412;5.436;2023-03-14T13:12:38;14.68;;;1.65;;
74044;SDS011;62389;51.412;5.436;2023-03-14T13:15:53;7.40;;;1.55;;
74044;SDS011;62389;51.412;5.436;2023-03-14T13:18:07;10.13;;;2.03;;
74044;SDS011;62389;51.412;5.436;2023-03-14T13:20:36;16.48;;;2.25;;
74044;SDS011;62389;51.412;5.436;2023-03-14T13:23:05;6.05;;;1.60;;
74044;SDS011;62389;51.412;5.436;2023-03-14T13:25:44;7.50;;;1.60;;
74044;SDS011;62389;51.412;5.436;2023-03-14T13:28:10;6.40;;;1.20;;
74044;SDS011;62389;51.412;5.436;2023-03-14T13:30:39;6.60;;;1.38;;
74044;SDS011;62389;51.412;5.436;2023-03-14T13:33:06;7.43;;;1.30;;
74044;SDS011;62389;51.412;5.436;2023-03-14T13:35:40;7.40;;;1.83;;
74044;SDS011;62389;51.412;5.436;2023-03-14T13:38:22;6.85;;;1.50;;
74044;SDS011;62389;51.412;5.436;2023-03-14T13:40:49;7.95;;;1.45;;
74044;SDS011;62389;51.412;5.436;2023-03-14T13:43:32;7.93;;;1.17;;
74044;SDS011;62389;51.412;5.436;2023-03-14T13:46:03;5.55;;;1.15;;
74044;SDS011;62389;51.412;5.436;2023-03-14T13:48:32;4.60;;;0.88;;
74044;SDS011;62389;51.412;5.436;2023-03-14T13:51:07;5.75;;;1.27;;
74044;SDS011;62389;51.412;5.436;2023-03-14T13:53:50;3.25;;;0.93;;
74044;SDS011;62389;51.412;5.436;2023-03-14T13:56:20;5.50;;;1.13;;
74044;SDS011;62389;51.412;5.436;2023-03-14T13:58:48;4.13;;;0.73;;
74044;SDS011;62389;51.412;5.436;2023-03-14T14:01:22;5.93;;;0.90;;
74044;SDS011;62389;51.412;5.436;2023-03-14T14:03:54;4.20;;;1.08;;
74044;SDS011;62389;51.412;5.436;2023-03-14T14:06:23;6.75;;;0.80;;
74044;SDS011;62389;51.412;5.436;2023-03-14T14:08:51;5.25;;;1.15;;
74044;SDS011;62389;51.412;5.436;2023-03-14T14:14:08;7.00;;;1.52;;
74044;SDS011;62389;51.412;5.436;2023-03-14T14:16:38;5.35;;;0.90;;
74044;SDS011;62389;51.412;5.436;2023-03-14T14:19:04;4.43;;;1.33;;
74044;SDS011;62389;51.412;5.436;2023-03-14T14:21:30;4.40;;;1.00;;
74044;SDS011;62389;51.412;5.436;2023-03-14T14:23:57;8.98;;;1.45;;
74044;SDS011;62389;51.412;5.436;2023-03-14T14:26:23;5.05;;;0.82;;
74044;SDS011;62389;51.412;5.436;2023-03-14T14:28:58;6.32;;;1.33;;
74044;SDS011;62389;51.412;5.436;2023-03-14T14:31:25;6.63;;;1.63;;
74044;SDS011;62389;51.412;5.436;2023-03-14T14:36:19;12.10;;;1.20;;
74044;SDS011;62389;51.412;5.436;2023-03-14T14:38:54;8.70;;;2.05;;
74044;SDS011;62389;51.412;5.436;2023-03-14T14:41:26;5.20;;;0.90;;
74044;SDS011;62389;51.412;5.436;2023-03-14T14:43:53;4.57;;;0.95;;
74044;SDS011;62389;51.412;5.436;2023-03-14T14:46:20;4.57;;;1.00;;
74044;SDS011;62389;51.412;5.436;2023-03-14T14:48:45;6.10;;;0.88;;
74044;SDS011;62389;51.412;5.436;2023-03-14T14:51:22;5.50;;;1.38;;
74044;SDS011;62389;51.412;5.436;2023-03-14T14:53:49;5.57;;;0.90;;
74044;SDS011;62389;51.412;5.436;2023-03-14T14:56:26;4.20;;;0.90;;
74044;SDS011;62389;51.412;5.436;2023-03-14T14:58:57;4.50;;;0.88;;
74044;SDS011;62389;51.412;5.436;2023-03-14T15:03:56;9.68;;;1.40;;
74044;SDS011;62389;51.412;5.436;2023-03-14T15:06:21;9.23;;;1.50;;
74044;SDS011;62389;51.412;5.436;2023-03-14T15:08:52;8.07;;;1.95;;
74044;SDS011;62389;51.412;5.436;2023-03-14T15:11:19;37.85;;;4.20;;
74044;SDS011;62389;51.412;5.436;2023-03-14T15:13:49;7.55;;;1.63;;
74044;SDS011;62389;51.412;5.436;2023-03-14T15:16:21;3.78;;;0.90;;
74044;SDS011;62389;51.412;5.436;2023-03-14T15:18:56;3.42;;;0.77;;
74044;SDS011;62389;51.412;5.436;2023-03-14T15:21:24;56.15;;;4.22;;
74044;SDS011;62389;51.412;5.436;2023-03-14T15:23:51;3.17;;;0.88;;
74044;SDS011;62389;51.412;5.436;2023-03-14T15:26:17;3.65;;;1.20;;
74044;SDS011;62389;51.412;5.436;2023-03-14T15:28:45;2.88;;;0.80;;
74044;SDS011;62389;51.412;5.436;2023-03-14T15:31:14;9.60;;;1.33;;
74044;SDS011;62389;51.412;5.436;2023-03-14T15:36:14;5.63;;;0.80;;
74044;SDS011;62389;51.412;5.436;2023-03-14T15:38:44;3.53;;;1.63;;
74044;SDS011;62389;51.412;5.436;2023-03-14T15:41:09;4.72;;;0.93;;
74044;SDS011;62389;51.412;5.436;2023-03-14T15:43:35;4.60;;;1.23;;
74044;SDS011;62389;51.412;5.436;2023-03-14T15:46:00;7.90;;;1.50;;
74044;SDS011;62389;51.412;5.436;2023-03-14T15:48:25;9.85;;;1.40;;
74044;SDS011;62389;51.412;5.436;2023-03-14T15:50:51;9.55;;;1.10;;
74044;SDS011;62389;51.412;5.436;2023-03-14T15:53:16;5.97;;;0.90;;
74044;SDS011;62389;51.412;5.436;2023-03-14T15:55:42;5.20;;;1.10;;
74044;SDS011;62389;51.412;5.436;2023-03-14T15:58:09;3.30;;;0.80;;
74044;SDS011;62389;51.412;5.436;2023-03-14T16:00:41;8.00;;;1.10;;
74044;SDS011;62389;51.412;5.436;2023-03-14T16:03:06;8.18;;;1.42;;
74044;SDS011;62389;51.412;5.436;2023-03-14T16:05:32;6.15;;;1.17;;
74044;SDS011;62389;51.412;5.436;2023-03-14T16:07:57;11.85;;;1.42;;
74044;SDS011;62389;51.412;5.436;2023-03-14T16:10:22;7.45;;;1.30;;
74044;SDS011;62389;51.412;5.436;2023-03-14T16:12:48;6.50;;;1.27;;